createdAt,value
2024-04-15T00:00:01.731Z,82.27
2024-04-15T00:02:29.221Z,82.49
2024-04-15T00:04:56.895Z,83.68
2024-04-15T00:07:24.398Z,83.65
2024-04-15T00:09:51.998Z,83.56
2024-04-15T00:12:19.641Z,84.88
2024-04-15T00:14:47.199Z,84.56
2024-04-15T00:17:15.635Z,85.60
2024-04-15T00:19:43.351Z,86.68
2024-04-15T00:22:10.987Z,88.19
2024-04-15T00:24:38.593Z,88.81
2024-04-15T00:27:06.294Z,87.88
2024-04-15T00:29:33.792Z,88.36
2024-04-15T00:32:01.367Z,87.01
2024-04-15T00:34:28.904Z,87.83
2024-04-15T00:36:56.752Z,88.33
2024-04-15T00:39:24.267Z,88.34
2024-04-15T00:41:51.893Z,88.52
2024-04-15T00:44:19.368Z,88.36
2024-04-15T00:46:47.072Z,88.85
2024-04-15T00:49:15.000Z,88.84
2024-04-15T00:51:43.328Z,89.08
2024-04-15T00:54:11.464Z,88.93
2024-04-15T00:56:39.487Z,88.90
2024-04-15T00:59:08.558Z,89.73
2024-04-15T01:01:36.399Z,89.26
2024-04-15T01:04:04.087Z,89.87
2024-04-15T01:06:31.899Z,89.32
2024-04-15T01:08:59.355Z,87.48
2024-04-15T01:11:27.105Z,86.67
2024-04-15T01:13:54.671Z,87.92
2024-04-15T01:16:22.314Z,87.92
2024-04-15T01:18:49.860Z,88.28
2024-04-15T01:21:17.435Z,88.70
2024-04-15T01:23:47.618Z,87.42
2024-04-15T01:26:15.055Z,90.10
2024-04-15T01:28:43.280Z,89.29
2024-04-15T01:31:10.769Z,89.25
2024-04-15T01:33:38.323Z,90.59
2024-04-15T01:36:05.994Z,89.94
2024-04-15T01:38:33.866Z,88.89
2024-04-15T01:41:01.403Z,90.29
2024-04-15T01:43:28.881Z,91.33
2024-04-15T01:45:56.450Z,92.15
2024-04-15T01:48:24.261Z,91.48
2024-04-15T01:50:51.859Z,92.12
2024-04-15T01:53:19.409Z,91.35
2024-04-15T01:55:46.868Z,92.04
2024-04-15T01:58:14.691Z,92.58
2024-04-15T02:00:42.294Z,92.51
2024-04-15T02:03:09.938Z,93.38
2024-04-15T02:05:37.440Z,93.00
2024-04-15T02:08:05.197Z,94.32
2024-04-15T02:10:32.684Z,94.27
2024-04-15T02:13:00.227Z,95.12
2024-04-15T02:15:27.708Z,98.09
2024-04-15T02:17:55.347Z,95.51
2024-04-15T02:20:22.958Z,94.72
2024-04-15T02:22:50.430Z,94.61
2024-04-15T02:25:18.171Z,96.78
2024-04-15T02:27:45.631Z,95.97
2024-04-15T02:30:13.229Z,96.11
2024-04-15T02:32:40.795Z,97.51
2024-04-15T02:35:08.301Z,98.92
2024-04-15T02:37:35.875Z,97.44
2024-04-15T02:40:03.568Z,97.30
2024-04-15T02:42:31.371Z,96.99
2024-04-15T02:44:58.845Z,99.45
2024-04-15T02:47:26.473Z,97.49
2024-04-15T02:49:53.956Z,98.01
2024-04-15T02:52:21.492Z,98.60
2024-04-15T02:54:49.011Z,100.00
2024-04-15T02:57:16.384Z,99.64
2024-04-15T02:59:43.989Z,100.00
2024-04-15T03:02:11.320Z,99.08
2024-04-15T03:04:38.932Z,99.17
2024-04-15T03:07:06.520Z,99.63
2024-04-15T03:09:34.016Z,99.86
2024-04-15T03:12:01.606Z,100.00
2024-04-15T03:14:28.968Z,100.00
2024-04-15T03:16:56.467Z,100.00
2024-04-15T03:19:24.013Z,100.00
2024-04-15T03:21:51.360Z,100.00
2024-04-15T03:24:18.790Z,100.00
2024-04-15T03:26:46.150Z,100.00
2024-04-15T03:29:14.309Z,100.00
2024-04-15T03:31:41.653Z,100.00
2024-04-15T03:34:09.093Z,100.00
2024-04-15T03:36:36.511Z,100.00
2024-04-15T03:39:04.004Z,100.00
2024-04-15T03:41:31.660Z,100.00
2024-04-15T03:43:58.960Z,100.00
2024-04-15T03:46:26.237Z,100.00
2024-04-15T03:48:55.348Z,100.00
2024-04-15T03:51:22.772Z,100.00
2024-04-15T03:53:50.209Z,100.00
2024-04-15T03:56:17.580Z,100.00
2024-04-15T03:58:45.097Z,100.00
2024-04-15T04:01:12.565Z,100.00
2024-04-15T04:03:41.592Z,100.00
2024-04-15T04:06:11.780Z,88.08
2024-04-15T04:08:41.096Z,83.65
2024-04-15T04:11:09.707Z,82.64
2024-04-15T04:13:37.880Z,81.32
2024-04-15T04:16:06.175Z,85.97
2024-04-15T04:18:34.304Z,81.81
2024-04-15T04:21:01.966Z,73.71
2024-04-15T04:23:29.560Z,76.71
2024-04-15T04:25:56.956Z,77.60
2024-04-15T04:28:24.473Z,74.50
2024-04-15T04:30:51.958Z,77.55
2024-04-15T04:33:19.438Z,76.15
2024-04-15T04:35:47.064Z,78.19
2024-04-15T04:38:14.611Z,78.91
2024-04-15T04:40:42.232Z,78.67
2024-04-15T04:43:10.052Z,75.51
2024-04-15T04:45:37.567Z,76.01
2024-04-15T04:48:05.483Z,75.12
2024-04-15T04:50:32.896Z,72.50
2024-04-15T04:53:00.496Z,71.53
2024-04-15T04:55:28.050Z,72.93
2024-04-15T04:57:55.579Z,72.57
2024-04-15T05:00:23.158Z,73.71
2024-04-15T05:02:50.858Z,73.41
2024-04-15T05:05:18.525Z,72.98
2024-04-15T05:07:46.031Z,72.34
2024-04-15T05:10:14.962Z,73.03
2024-04-15T05:12:49.517Z,73.57
2024-04-15T05:15:23.871Z,73.33
2024-04-15T05:17:51.609Z,73.49
2024-04-15T05:20:19.203Z,74.96
2024-04-15T05:22:46.699Z,74.28
2024-04-15T05:25:14.357Z,82.92
2024-04-15T05:27:41.907Z,85.75
2024-04-15T05:30:10.084Z,90.21
2024-04-15T05:32:37.592Z,93.51
2024-04-15T05:35:05.521Z,93.96
2024-04-15T05:37:32.982Z,93.44
2024-04-15T05:40:00.580Z,94.00
2024-04-15T05:42:28.170Z,97.07
2024-04-15T05:44:56.123Z,92.79
2024-04-15T05:47:23.850Z,92.16
2024-04-15T05:49:51.368Z,91.43
2024-04-15T05:52:18.874Z,91.38
2024-04-15T05:54:46.448Z,91.10
2024-04-15T05:57:14.013Z,90.67
2024-04-15T05:59:41.500Z,88.63
2024-04-15T06:02:09.029Z,89.81
2024-04-15T06:04:36.613Z,88.82
2024-04-15T06:07:04.469Z,84.17
2024-04-15T06:09:33.035Z,78.46
2024-04-15T06:12:00.576Z,74.73
2024-04-15T06:14:28.174Z,73.20
2024-04-15T06:16:55.906Z,75.74
2024-04-15T06:19:23.994Z,76.22
2024-04-15T06:21:52.099Z,76.58
2024-04-15T06:24:19.611Z,78.07
2024-04-15T06:26:48.622Z,77.46
2024-04-15T06:29:16.206Z,78.49
2024-04-15T06:31:43.686Z,77.10
2024-04-15T06:34:11.381Z,75.38
2024-04-15T06:36:38.882Z,75.11
2024-04-15T06:39:06.453Z,76.47
2024-04-15T06:41:33.998Z,75.80
2024-04-15T06:44:01.574Z,74.66
2024-04-15T06:46:29.189Z,74.03
2024-04-15T06:48:56.757Z,74.59
2024-04-15T06:51:24.274Z,73.89
2024-04-15T06:53:51.891Z,73.14
2024-04-15T06:56:19.541Z,73.45
2024-04-15T06:58:47.127Z,74.15
2024-04-15T07:01:14.961Z,72.42
2024-04-15T07:03:42.603Z,69.58
2024-04-15T07:06:10.131Z,67.97
2024-04-15T07:08:37.625Z,68.65
2024-04-15T07:11:05.202Z,67.48
2024-04-15T07:13:33.209Z,65.79
2024-04-15T07:16:00.897Z,63.43
2024-04-15T07:18:28.884Z,63.39
2024-04-15T07:20:56.543Z,60.06
2024-04-15T07:23:24.103Z,57.93
2024-04-15T07:26:01.274Z,55.56
2024-04-15T07:28:29.360Z,53.72
2024-04-15T07:31:07.278Z,55.94
2024-04-15T07:33:34.946Z,55.48
2024-04-15T07:36:02.530Z,53.50
2024-04-15T07:38:30.091Z,54.30
2024-04-15T07:41:00.915Z,52.67
2024-04-15T07:43:28.815Z,50.24
2024-04-15T07:45:56.505Z,52.06
2024-04-15T07:48:24.110Z,52.39
2024-04-15T07:50:51.622Z,51.99
2024-04-15T07:53:19.268Z,50.75
2024-04-15T07:55:46.802Z,49.82
2024-04-15T07:58:14.541Z,49.25
2024-04-15T08:00:42.736Z,50.17
2024-04-15T08:03:10.418Z,49.13
2024-04-15T08:05:37.898Z,48.23
2024-04-15T08:08:06.625Z,47.00
2024-04-15T08:10:34.276Z,47.33
2024-04-15T08:13:01.881Z,46.46
2024-04-15T08:15:29.578Z,45.25
2024-04-15T08:17:57.272Z,46.82
2024-04-15T08:20:24.871Z,46.29
2024-04-15T08:22:52.454Z,46.00
2024-04-15T08:25:20.963Z,45.05
2024-04-15T08:27:48.424Z,44.57
2024-04-15T08:30:15.938Z,45.58
2024-04-15T08:32:43.556Z,42.20
2024-04-15T08:35:11.205Z,40.86
2024-04-15T08:37:38.863Z,41.62
2024-04-15T08:40:07.195Z,41.01
2024-04-15T08:42:51.483Z,40.99
2024-04-15T08:45:21.034Z,40.89
2024-04-15T08:47:54.181Z,39.42
2024-04-15T08:50:23.108Z,38.99
2024-04-15T08:52:52.260Z,39.18
2024-04-15T08:55:23.549Z,39.61
2024-04-15T08:57:52.742Z,39.77
2024-04-15T09:00:22.202Z,38.89
2024-04-15T09:02:53.029Z,38.80
2024-04-15T09:05:20.898Z,38.02
2024-04-15T09:07:50.756Z,38.01
2024-04-15T09:10:18.474Z,38.47
2024-04-15T09:12:46.225Z,38.42
2024-04-15T09:15:15.374Z,39.19
2024-04-15T09:17:43.066Z,39.01
2024-04-15T09:20:11.636Z,38.14
2024-04-15T09:22:39.740Z,37.33
2024-04-15T09:25:07.587Z,38.03
2024-04-15T09:27:35.364Z,38.75
2024-04-15T09:30:04.603Z,37.92
2024-04-15T09:32:32.374Z,38.36
2024-04-15T09:35:02.407Z,36.73
2024-04-15T09:37:30.552Z,37.13
2024-04-15T09:39:58.301Z,39.03
2024-04-15T09:42:26.122Z,43.05
2024-04-15T09:44:56.736Z,38.00
2024-04-15T09:47:25.044Z,39.42
2024-04-15T09:49:52.742Z,38.92
2024-04-15T09:52:31.297Z,38.44
2024-04-15T09:55:34.998Z,38.56
2024-04-15T09:58:05.678Z,37.93
2024-04-15T10:00:38.024Z,38.81
2024-04-15T10:03:09.217Z,38.85
2024-04-15T10:05:40.337Z,38.77
2024-04-15T10:08:09.336Z,39.53
2024-04-15T10:10:38.219Z,40.02
2024-04-15T10:13:06.958Z,38.54
2024-04-15T10:15:34.956Z,38.95
2024-04-15T10:18:07.051Z,39.25
2024-04-15T10:20:41.907Z,39.26
2024-04-15T10:23:12.138Z,38.95
2024-04-15T10:25:39.935Z,39.78
2024-04-15T10:28:08.659Z,40.13
2024-04-15T10:30:38.596Z,39.21
2024-04-15T10:33:08.954Z,38.53
2024-04-15T10:35:38.537Z,37.96
2024-04-15T10:38:10.298Z,38.76
2024-04-15T10:40:42.962Z,39.01
2024-04-15T10:43:13.763Z,38.72
2024-04-15T10:45:41.668Z,38.60
2024-04-15T10:48:10.959Z,38.25
2024-04-15T10:50:38.725Z,37.93
2024-04-15T10:53:06.417Z,38.83
2024-04-15T10:55:33.989Z,38.26
2024-04-15T10:58:01.569Z,38.89
2024-04-15T11:00:29.282Z,38.26
2024-04-15T11:02:56.994Z,36.24
2024-04-15T11:05:24.728Z,36.24
2024-04-15T11:07:52.486Z,35.31
2024-04-15T11:10:20.162Z,36.71
2024-04-15T11:12:53.050Z,35.35
2024-04-15T11:15:21.093Z,34.67
2024-04-15T11:17:49.605Z,34.58
2024-04-15T11:20:17.573Z,34.33
2024-04-15T11:22:46.328Z,33.60
2024-04-15T11:25:15.217Z,32.94
2024-04-15T11:27:53.198Z,34.51
2024-04-15T11:30:23.602Z,33.85
2024-04-15T11:32:52.035Z,33.46
2024-04-15T11:35:22.820Z,34.01
2024-04-15T11:37:54.560Z,34.50
2024-04-15T11:40:23.653Z,33.24
2024-04-15T11:42:52.615Z,32.36
2024-04-15T11:45:20.123Z,32.04
2024-04-15T11:47:54.628Z,30.78
2024-04-15T11:50:22.724Z,31.39
2024-04-15T11:52:50.420Z,29.57
2024-04-15T11:55:24.585Z,30.52
2024-04-15T11:57:52.296Z,30.43
2024-04-15T12:00:20.219Z,30.79
2024-04-15T12:02:48.499Z,31.33
2024-04-15T12:05:16.205Z,29.81
2024-04-15T12:07:44.651Z,29.98
2024-04-15T12:10:13.322Z,30.37
2024-04-15T12:12:41.068Z,29.72
2024-04-15T12:15:09.524Z,29.82
2024-04-15T12:17:38.552Z,30.07
2024-04-15T12:20:06.904Z,29.39
2024-04-15T12:22:34.816Z,28.54
2024-04-15T12:25:08.061Z,28.63
2024-04-15T12:27:39.580Z,28.75
2024-04-15T12:30:08.632Z,28.24
2024-04-15T12:32:36.315Z,27.60
2024-04-15T12:35:04.032Z,28.31
2024-04-15T12:37:31.693Z,27.95
2024-04-15T12:39:59.463Z,27.70
2024-04-15T12:42:26.896Z,27.87
2024-04-15T12:44:54.443Z,28.49
2024-04-15T12:47:21.993Z,28.12
2024-04-15T12:49:49.664Z,27.03
2024-04-15T12:52:17.170Z,27.43
2024-04-15T12:54:44.600Z,27.78
2024-04-15T12:57:13.735Z,28.12
2024-04-15T12:59:41.455Z,27.59
2024-04-15T13:02:09.946Z,27.48
2024-04-15T13:04:37.800Z,27.88
2024-04-15T13:07:05.671Z,27.52
2024-04-15T13:09:33.684Z,27.46
2024-04-15T13:12:01.271Z,28.65
2024-04-15T13:14:30.813Z,28.52
2024-04-15T13:16:59.194Z,27.68
2024-04-15T13:19:26.879Z,27.78
2024-04-15T13:21:54.463Z,28.07
2024-04-15T13:24:22.144Z,27.67
2024-04-15T13:26:49.685Z,28.11
2024-04-15T13:29:17.196Z,27.94
2024-04-15T13:31:50.852Z,28.13
2024-04-15T13:34:25.020Z,27.97
2024-04-15T13:36:52.893Z,28.36
2024-04-15T13:39:20.410Z,28.26
2024-04-15T13:41:48.133Z,28.67
2024-04-15T13:44:15.676Z,27.82
2024-04-15T13:46:43.387Z,28.00
2024-04-15T13:49:11.083Z,28.60
2024-04-15T13:51:38.625Z,28.33
2024-04-15T13:54:06.134Z,28.92
2024-04-15T13:56:33.864Z,29.15
2024-04-15T13:59:01.663Z,29.13
2024-04-15T14:01:29.276Z,28.30
2024-04-15T14:03:56.965Z,27.86
2024-04-15T14:06:25.318Z,27.49
2024-04-15T14:08:53.605Z,27.67
2024-04-15T14:11:21.910Z,27.60
2024-04-15T14:13:49.899Z,27.21
2024-04-15T14:16:17.596Z,26.42
2024-04-15T14:18:45.331Z,27.27
2024-04-15T14:21:12.848Z,27.02
2024-04-15T14:23:40.475Z,26.37
2024-04-15T14:26:08.840Z,26.26
2024-04-15T14:28:36.452Z,26.66
2024-04-15T14:31:04.349Z,26.91
2024-04-15T14:33:32.015Z,26.59
2024-04-15T14:35:59.585Z,26.65
2024-04-15T14:38:27.152Z,24.98
2024-04-15T14:40:55.263Z,25.77
2024-04-15T14:43:23.316Z,25.53
2024-04-15T14:45:53.890Z,25.81
2024-04-15T14:48:21.952Z,25.16
2024-04-15T14:50:49.538Z,25.57
2024-04-15T14:53:17.024Z,25.28
2024-04-15T14:55:44.570Z,23.60
2024-04-15T14:58:12.214Z,23.65
2024-04-15T15:00:40.034Z,24.67
2024-04-15T15:03:07.711Z,24.88
2024-04-15T15:05:35.399Z,24.64
2024-04-15T15:08:02.947Z,24.80
2024-04-15T15:10:30.963Z,23.48
2024-04-15T15:12:58.559Z,22.86
2024-04-15T15:15:26.028Z,22.00
2024-04-15T15:17:55.318Z,22.54
2024-04-15T15:20:23.214Z,22.35
2024-04-15T15:22:50.702Z,22.16
2024-04-15T15:25:18.280Z,22.73
2024-04-15T15:27:47.177Z,23.03
2024-04-15T15:30:16.005Z,22.95
2024-04-15T15:32:43.534Z,23.39
2024-04-15T15:35:11.010Z,23.72
2024-04-15T15:37:38.563Z,23.41
2024-04-15T15:40:06.888Z,23.48
2024-04-15T15:42:34.309Z,23.96
2024-04-15T15:45:02.099Z,24.14
2024-04-15T15:47:30.276Z,24.20
2024-04-15T15:49:57.865Z,24.49
2024-04-15T15:52:25.460Z,24.45
2024-04-15T15:54:53.211Z,24.54
2024-04-15T15:57:20.907Z,25.25
2024-04-15T15:59:48.341Z,25.25
2024-04-15T16:02:16.378Z,24.62
2024-04-15T16:04:44.105Z,25.78
2024-04-15T16:07:11.807Z,25.92
2024-04-15T16:09:39.568Z,26.23
2024-04-15T16:12:07.458Z,26.68
2024-04-15T16:14:35.063Z,27.28
2024-04-15T16:17:02.616Z,27.66
2024-04-15T16:19:30.163Z,27.41
2024-04-15T16:21:59.004Z,28.10
2024-04-15T16:24:26.790Z,28.07
2024-04-15T16:26:54.356Z,27.92
2024-04-15T16:29:21.922Z,28.09
2024-04-15T16:31:49.564Z,28.84
2024-04-15T16:34:17.048Z,30.34
2024-04-15T16:36:44.738Z,32.89
2024-04-15T16:39:12.283Z,33.07
2024-04-15T16:41:39.939Z,32.43
2024-04-15T16:44:07.598Z,32.28
2024-04-15T16:46:35.176Z,32.06
2024-04-15T16:49:04.212Z,33.10
2024-04-15T16:51:33.280Z,32.62
2024-04-15T16:54:00.980Z,33.61
2024-04-15T16:56:28.625Z,33.62
2024-04-15T16:58:56.146Z,33.90
2024-04-15T17:01:23.829Z,33.64
2024-04-15T17:03:51.629Z,33.58
2024-04-15T17:06:19.264Z,34.09
2024-04-15T17:08:46.919Z,33.65
2024-04-15T17:11:14.470Z,33.93
2024-04-15T17:13:42.032Z,34.43
2024-04-15T17:16:12.512Z,34.74
2024-04-15T17:18:40.661Z,34.85
2024-04-15T17:21:08.176Z,34.75
2024-04-15T17:23:35.660Z,35.63
2024-04-15T17:26:03.321Z,36.07
2024-04-15T17:28:30.860Z,36.48
2024-04-15T17:30:58.716Z,37.07
2024-04-15T17:33:26.294Z,38.79
2024-04-15T17:35:53.818Z,38.25
2024-04-15T17:38:21.302Z,38.43
2024-04-15T17:40:48.748Z,38.49
2024-04-15T17:43:16.279Z,38.06
2024-04-15T17:45:43.837Z,38.64
2024-04-15T17:48:11.367Z,38.92
2024-04-15T17:50:39.057Z,39.83
2024-04-15T17:53:06.557Z,39.94
2024-04-15T17:55:34.196Z,39.98
2024-04-15T17:58:02.082Z,40.62
2024-04-15T18:00:29.648Z,41.93
2024-04-15T18:02:59.630Z,41.05
2024-04-15T18:05:27.654Z,41.22
2024-04-15T18:07:55.253Z,42.23
2024-04-15T18:10:22.823Z,41.69
2024-04-15T18:12:50.840Z,41.71
2024-04-15T18:15:18.654Z,42.07
2024-04-15T18:17:46.432Z,43.08
2024-04-15T18:20:13.920Z,43.62
2024-04-15T18:22:41.469Z,43.67
2024-04-15T18:25:09.184Z,44.26
2024-04-15T18:27:36.716Z,44.05
2024-04-15T18:30:04.580Z,44.70
2024-04-15T18:32:32.312Z,45.79
2024-04-15T18:34:59.862Z,45.49
2024-04-15T18:37:27.415Z,45.80
2024-04-15T18:39:55.029Z,45.82
2024-04-15T18:42:22.706Z,46.51
2024-04-15T18:44:50.068Z,46.84
2024-04-15T18:47:17.703Z,46.86
2024-04-15T18:49:45.204Z,47.28
2024-04-15T18:52:12.835Z,47.60
2024-04-15T18:54:40.433Z,47.32
2024-04-15T18:57:08.326Z,47.21
2024-04-15T18:59:35.844Z,48.13
2024-04-15T19:02:03.568Z,48.51
2024-04-15T19:04:31.135Z,49.08
2024-04-15T19:06:59.483Z,48.90
2024-04-15T19:09:26.962Z,49.79
2024-04-15T19:11:55.614Z,49.39
2024-04-15T19:14:25.690Z,49.71
2024-04-15T19:16:55.547Z,51.38
2024-04-15T19:19:23.107Z,52.09
2024-04-15T19:21:50.701Z,52.05
2024-04-15T19:24:18.259Z,52.36
2024-04-15T19:26:45.807Z,52.47
2024-04-15T19:29:13.579Z,52.36
2024-04-15T19:31:41.272Z,52.01
2024-04-15T19:34:08.802Z,51.77
2024-04-15T19:36:36.259Z,52.77
2024-04-15T19:39:03.858Z,53.49
2024-04-15T19:41:31.435Z,53.24
2024-04-15T19:43:59.050Z,52.49
2024-04-15T19:46:26.794Z,53.14
2024-04-15T19:48:54.281Z,53.06
2024-04-15T19:51:21.713Z,52.04
2024-04-15T19:53:49.289Z,51.82
2024-04-15T19:56:16.811Z,52.21
2024-04-15T19:58:44.289Z,52.21
2024-04-15T20:01:11.847Z,51.93
2024-04-15T20:03:39.437Z,51.61
2024-04-15T20:06:08.266Z,50.70
2024-04-15T20:08:35.956Z,52.12
2024-04-15T20:11:03.536Z,49.72
2024-04-15T20:13:31.229Z,50.17
2024-04-15T20:15:58.885Z,50.59
2024-04-15T20:18:26.554Z,51.81
2024-04-15T20:20:54.128Z,51.78
2024-04-15T20:23:21.637Z,49.58
2024-04-15T20:25:49.107Z,50.25
2024-04-15T20:28:16.722Z,51.21
2024-04-15T20:30:44.336Z,51.19
2024-04-15T20:33:11.927Z,49.29
2024-04-15T20:35:39.606Z,48.44
2024-04-15T20:38:07.121Z,49.23
2024-04-15T20:40:39.683Z,48.65
2024-04-15T20:43:09.133Z,48.96
2024-04-15T20:45:37.025Z,50.38
2024-04-15T20:48:05.101Z,50.65
2024-04-15T20:50:32.709Z,51.33
2024-04-15T20:53:00.388Z,52.20
2024-04-15T20:55:28.138Z,52.02
2024-04-15T20:57:55.853Z,52.81
2024-04-15T21:00:23.862Z,52.87
2024-04-15T21:02:51.472Z,53.26
2024-04-15T21:05:19.438Z,53.75
2024-04-15T21:07:46.986Z,54.37
2024-04-15T21:10:15.022Z,54.81
2024-04-15T21:12:42.776Z,54.62
2024-04-15T21:15:10.435Z,54.29
2024-04-15T21:17:38.180Z,54.45
2024-04-15T21:20:06.306Z,53.79
2024-04-15T21:22:34.744Z,53.07
2024-04-15T21:25:04.455Z,52.11
2024-04-15T21:27:31.990Z,49.93
2024-04-15T21:29:59.599Z,48.52
2024-04-15T21:32:27.149Z,48.50
2024-04-15T21:34:54.730Z,46.09
2024-04-15T21:37:23.328Z,44.97
2024-04-15T21:39:50.827Z,43.06
2024-04-15T21:42:18.331Z,41.81
2024-04-15T21:44:45.865Z,43.29
2024-04-15T21:47:13.342Z,42.90
2024-04-15T21:49:40.920Z,42.86
2024-04-15T21:52:08.747Z,43.89
2024-04-15T21:54:36.344Z,43.52
2024-04-15T21:57:03.938Z,42.63
2024-04-15T21:59:31.489Z,42.96
2024-04-15T22:01:59.028Z,42.78
2024-04-15T22:04:26.551Z,41.78
2024-04-15T22:06:54.129Z,41.00
2024-04-15T22:09:21.703Z,41.08
2024-04-15T22:11:49.404Z,41.31
2024-04-15T22:14:16.991Z,41.71
2024-04-15T22:16:44.642Z,40.83
2024-04-15T22:19:12.253Z,41.01
2024-04-15T22:21:39.857Z,41.14
2024-04-15T22:24:07.635Z,41.04
2024-04-15T22:26:35.220Z,40.54
2024-04-15T22:29:02.876Z,40.98
2024-04-15T22:31:30.412Z,41.02
2024-04-15T22:33:58.261Z,41.00
2024-04-15T22:36:25.824Z,41.11
2024-04-15T22:38:53.283Z,41.22
2024-04-15T22:41:20.735Z,41.57
2024-04-15T22:43:48.238Z,40.81
2024-04-15T22:46:15.857Z,41.10
2024-04-15T22:48:43.407Z,41.48
2024-04-15T22:51:10.921Z,43.81
2024-04-15T22:53:38.350Z,41.92
2024-04-15T22:56:06.041Z,42.19
2024-04-15T22:58:33.732Z,42.42
2024-04-15T23:01:01.433Z,42.91
2024-04-15T23:03:29.044Z,42.97
2024-04-15T23:05:56.543Z,42.93
2024-04-15T23:08:24.050Z,42.75
2024-04-15T23:10:51.863Z,43.21
2024-04-15T23:13:19.598Z,42.99
2024-04-15T23:15:47.066Z,42.82
2024-04-15T23:18:14.526Z,42.90
2024-04-15T23:20:42.049Z,42.79
2024-04-15T23:23:09.486Z,43.01
2024-04-15T23:25:36.987Z,42.36
2024-04-15T23:28:04.719Z,43.05
2024-04-15T23:30:33.212Z,42.25
2024-04-15T23:33:00.842Z,41.98
2024-04-15T23:35:28.671Z,42.24
2024-04-15T23:37:56.140Z,41.59
2024-04-15T23:40:23.743Z,41.95
2024-04-15T23:42:51.250Z,42.33
2024-04-15T23:45:19.126Z,41.71
2024-04-15T23:47:46.616Z,41.69
2024-04-15T23:50:14.207Z,42.07
2024-04-15T23:52:41.811Z,42.43
2024-04-15T23:55:09.334Z,41.95
2024-04-15T23:57:36.839Z,41.91
